Terminal Aerodrome Forecast
Issued by NWS

Home | Current Version | Previous Version | Text Only | Print | Product List | Glossary On
Versions: 1 2 3 4 5 6 7 8 9 10 11 12 13 14 15
000
FTUS42 KGSP 300810 AAA
TAFGMU
TAF AMD
KGMU 300810Z 3008/3106 26005KT P6SM OVC110
     FM301400 24004KT P6SM OVC090
     FM301900 24007KT P6SM SCT035 BKN250
     FM310200 24003KT P6SM SCT250=

USA.gov is the U.S. government's official web portal to all federal, state and local government web resources and services.